Saint Peters, MO

2:01 AM CST on January 31, 2015 (GMT -0600)
Wilshire Valley | Change Station
CLOSE
Current Station
Personal Weather Station
Location: St. Charles, MO
Elevation: 617 ft
Nearby Weather Stations
Active Advisory: Special Statement

Elev 617 ft 38.76 °N, 90.56 °W | Updated 18 seconds ago

Mostly Cloudy
Mostly Cloudy
31.3 °F
Feels Like 31 °F
N
0.0
Wind Variable Wind from SSE
Gusts 0.0 mph

Today
High -- | Low -- °F
--% Chance of Precip.
Yesterday
High -- | Low -- °F
Precip. -- in
7:09 AM 5:22 PM
Waxing Gibbous, 88% visible
Pressure 30.39 in
Visibility 10.0 miles
Clouds Clear
Windchill 31 °F
Dew Point 10 °F
Humidity 40%
Rainfall 0.00 in
Snow Depth Not available.
UV 0 out of 12
Pollen .10 out of 12
Air Quality Not available.
Flu Activity Not available.
METAR KSUS 310754Z AUTO 00000KT 10SM CLR M03/M07 A3036 RMK AO2 SLP290 T10331067

More Conditions Fewer Conditions

Pressure 30.39 in
Visibility 10.0 miles
Clouds Clear
Windchill 31 °F
Dew Point 10 °F
Humidity 40%
Rainfall 0.00 in
Snow Depth Not available.
UV 0 out of 12
Pollen .10 out of 12
Air Quality Not available.
Flu Activity Not available.
METAR KSUS 310754Z AUTO 00000KT 10SM CLR M03/M07 A3036 RMK AO2 SLP290 T10331067

More Conditions Fewer Conditions

10-Day Weather Forecast

Almanac

Astronomy

Jan. 31, 2015 Rise Set
Actual Time
Civil Twilight
Nautical Twilight
Astronomical Twilight
Moon
Length of Visible Light
Length of Day
Tomorrow will be .
, % of the Moon is Illuminated

Today's Extremes

State Highs State Lows

Community

WunderPhotos

Upload Photos

1,792,017 photos uploaded!

WunderBlogs® & News

Nearby

Air Quality

  Air Quality AQ Index Pollutant
Not available.

Snow Depth

Station Depth Elevation

Earthquake Activity

City Distance Mag. Time & Date
Minimum magnitude displayed is 2.5.

Coastal Water Temperatures

Place Temperature

Nearby Weather Stations